createdAt,value
2023-02-26T00:01:30.136Z,47.10
2023-02-26T00:04:31.832Z,51.80
2023-02-26T00:07:33.510Z,47.60
2023-02-26T00:10:35.274Z,51.60
2023-02-26T00:13:38.200Z,49.10
2023-02-26T00:16:40.254Z,46.50
2023-02-26T00:19:42.135Z,48.00
2023-02-26T00:22:44.590Z,42.80
2023-02-26T00:25:47.056Z,45.70
2023-02-26T00:28:50.062Z,48.10
2023-02-26T00:31:51.973Z,43.70
2023-02-26T00:34:53.918Z,36.90
2023-02-26T00:38:06.102Z,48.80
2023-02-26T00:41:08.859Z,40.40
2023-02-26T00:44:20.857Z,42.10
2023-02-26T00:47:25.649Z,39.30
2023-02-26T00:50:28.092Z,41.00
2023-02-26T00:53:39.754Z,40.80
2023-02-26T00:56:42.819Z,40.70
2023-02-26T00:59:44.438Z,41.00
2023-02-26T01:02:46.906Z,42.80
2023-02-26T01:05:48.740Z,39.80
2023-02-26T01:08:57.325Z,43.80
2023-02-26T01:12:01.738Z,40.00
2023-02-26T01:15:07.074Z,39.50
2023-02-26T01:18:22.013Z,40.00
2023-02-26T01:21:30.021Z,38.70
2023-02-26T01:24:31.664Z,39.50
2023-02-26T01:27:33.834Z,42.30
2023-02-26T01:30:35.896Z,44.40
2023-02-26T01:33:45.421Z,47.70
2023-02-26T01:36:56.630Z,47.20
2023-02-26T01:40:10.517Z,48.30
2023-02-26T01:43:18.332Z,53.70
2023-02-26T01:46:54.965Z,51.00
2023-02-26T01:49:56.969Z,47.10
2023-02-26T01:53:25.710Z,45.50
2023-02-26T01:56:27.853Z,46.80
2023-02-26T01:59:29.826Z,49.20
2023-02-26T02:02:32.266Z,44.50
2023-02-26T02:05:47.764Z,39.70
2023-02-26T02:08:49.458Z,42.10
2023-02-26T02:12:08.512Z,43.00
2023-02-26T02:15:25.368Z,40.10
2023-02-26T02:18:46.624Z,38.00
2023-02-26T02:21:55.583Z,27.40
2023-02-26T02:25:08.082Z,16.30
2023-02-26T02:28:32.174Z,17.60
2023-02-26T02:31:37.347Z,5.20
2023-02-26T02:34:47.163Z,7.80
2023-02-26T02:37:56.472Z,8.20
2023-02-26T02:41:13.529Z,5.00
2023-02-26T02:44:19.283Z,4.00
2023-02-26T02:47:22.009Z,3.80
2023-02-26T02:50:46.254Z,3.50
2023-02-26T02:53:53.141Z,1.00
2023-02-26T02:56:59.913Z,1.20
2023-02-26T03:00:06.165Z,1.00
2023-02-26T03:03:14.027Z,2.00
2023-02-26T03:06:15.755Z,0.90
2023-02-26T03:09:17.313Z,1.10
2023-02-26T03:12:18.965Z,3.20
2023-02-26T03:15:31.977Z,0.70
2023-02-26T03:18:45.736Z,1.80
2023-02-26T03:22:02.365Z,2.30
2023-02-26T03:25:35.720Z,0.70
2023-02-26T03:29:04.344Z,0.80
2023-02-26T03:32:11.589Z,0.40
2023-02-26T03:35:26.858Z,1.90
2023-02-26T03:38:50.425Z,0.50
2023-02-26T03:42:08.579Z,0.80
2023-02-26T03:45:29.318Z,0.50
2023-02-26T03:48:31.727Z,0.70
2023-02-26T03:51:33.968Z,0.50
2023-02-26T03:55:14.302Z,0.50
2023-02-26T03:58:27.481Z,0.80
2023-02-26T04:01:54.747Z,0.70
2023-02-26T04:05:04.610Z,1.10
2023-02-26T04:08:07.020Z,0.40
2023-02-26T04:11:17.326Z,0.50
2023-02-26T04:14:19.370Z,2.40
2023-02-26T04:17:21.060Z,0.70
2023-02-26T04:20:22.707Z,0.80
2023-02-26T04:23:24.424Z,1.60
2023-02-26T04:26:26.802Z,0.50
2023-02-26T04:29:28.847Z,0.50
2023-02-26T04:32:30.519Z,1.90
2023-02-26T04:35:32.100Z,0.40
2023-02-26T04:38:33.744Z,0.50
2023-02-26T04:41:35.541Z,0.40
2023-02-26T04:44:37.306Z,0.20
2023-02-26T04:47:38.833Z,0.80
2023-02-26T04:50:40.810Z,0.40
2023-02-26T04:53:42.333Z,0.40
2023-02-26T04:56:44.522Z,0.70
2023-02-26T04:59:46.244Z,1.10
2023-02-26T05:02:48.200Z,0.80
2023-02-26T05:05:49.806Z,0.60
2023-02-26T05:08:51.471Z,1.10
2023-02-26T05:11:53.311Z,0.70
2023-02-26T05:14:54.928Z,0.50
2023-02-26T05:17:56.536Z,0.60
2023-02-26T05:20:58.815Z,0.60
2023-02-26T05:24:03.182Z,0.50
2023-02-26T05:27:05.249Z,1.00
2023-02-26T05:30:08.587Z,0.70
2023-02-26T05:33:10.739Z,1.00
2023-02-26T05:36:12.951Z,0.80
2023-02-26T05:39:17.134Z,0.60
2023-02-26T05:42:18.791Z,0.70
2023-02-26T05:45:20.414Z,0.80
2023-02-26T05:48:22.907Z,0.60
2023-02-26T05:51:24.551Z,0.70
2023-02-26T05:54:26.264Z,0.70
2023-02-26T05:57:28.134Z,0.60
2023-02-26T06:00:29.799Z,0.60
2023-02-26T06:03:33.918Z,0.70
2023-02-26T06:06:35.848Z,0.50
2023-02-26T06:09:38.353Z,2.10
2023-02-26T06:12:40.188Z,0.70
2023-02-26T06:15:41.767Z,0.50
2023-02-26T06:18:45.684Z,2.60
2023-02-26T06:21:47.762Z,1.20
2023-02-26T06:24:49.939Z,0.80
2023-02-26T06:27:51.522Z,0.80
2023-02-26T06:30:53.977Z,0.60
2023-02-26T06:33:55.603Z,0.70
2023-02-26T06:36:57.734Z,1.20
2023-02-26T06:39:59.349Z,0.80
2023-02-26T06:43:01.112Z,1.50
2023-02-26T06:46:04.190Z,0.40
2023-02-26T06:49:05.917Z,0.50
2023-02-26T06:52:07.643Z,0.60
2023-02-26T06:55:09.890Z,0.80
2023-02-26T06:58:12.020Z,0.90
2023-02-26T07:01:13.625Z,0.70
2023-02-26T07:04:15.258Z,1.10
2023-02-26T07:07:16.872Z,0.70
2023-02-26T07:10:18.552Z,1.20
2023-02-26T07:13:20.202Z,1.40
2023-02-26T07:16:21.939Z,2.90
2023-02-26T07:19:23.448Z,0.80
2023-02-26T07:22:25.155Z,0.70
2023-02-26T07:25:26.820Z,0.90
2023-02-26T07:28:30.992Z,0.50
2023-02-26T07:31:33.157Z,1.40
2023-02-26T07:34:34.857Z,1.20
2023-02-26T07:37:36.672Z,1.00
2023-02-26T07:40:38.367Z,1.00
2023-02-26T07:43:39.950Z,1.30
2023-02-26T07:46:41.515Z,1.00
2023-02-26T07:49:43.126Z,0.60
2023-02-26T07:52:45.509Z,0.60
2023-02-26T07:55:47.427Z,0.70
2023-02-26T07:58:49.119Z,0.50
2023-02-26T08:01:52.048Z,0.70
2023-02-26T08:04:53.806Z,0.60
2023-02-26T08:07:55.411Z,0.60
2023-02-26T08:10:59.969Z,0.70
2023-02-26T08:14:01.606Z,1.10
2023-02-26T08:17:03.220Z,1.00
2023-02-26T08:20:05.255Z,0.50
2023-02-26T08:23:06.880Z,0.70
2023-02-26T08:26:10.345Z,0.80
2023-02-26T08:29:12.190Z,0.70
2023-02-26T08:32:15.954Z,3.20
2023-02-26T08:35:17.776Z,0.70
2023-02-26T08:38:20.544Z,0.90
2023-02-26T08:41:23.381Z,0.60
2023-02-26T08:44:25.125Z,1.30
2023-02-26T08:47:28.954Z,1.10
2023-02-26T08:50:30.799Z,0.70
2023-02-26T08:53:32.350Z,0.70
2023-02-26T08:56:33.863Z,0.90
2023-02-26T08:59:35.426Z,1.60
2023-02-26T09:02:38.261Z,1.40
2023-02-26T09:05:40.974Z,1.00
2023-02-26T09:08:42.581Z,1.10
2023-02-26T09:11:44.161Z,1.00
2023-02-26T09:14:45.881Z,0.90
2023-02-26T09:17:48.016Z,0.80
2023-02-26T09:20:49.587Z,0.70
2023-02-26T09:23:51.106Z,1.80
2023-02-26T09:26:52.658Z,0.70
2023-02-26T09:29:54.211Z,0.80
2023-02-26T09:32:55.753Z,0.90
2023-02-26T09:35:57.326Z,0.90
2023-02-26T09:38:58.899Z,0.70
2023-02-26T09:42:10.021Z,0.70
2023-02-26T09:45:22.101Z,1.10
2023-02-26T09:48:24.518Z,1.10
2023-02-26T09:51:27.215Z,1.20
2023-02-26T09:54:32.891Z,1.10
2023-02-26T09:57:36.399Z,0.90
2023-02-26T10:00:53.917Z,1.10
2023-02-26T10:04:25.012Z,1.20
2023-02-26T10:07:36.486Z,1.60
2023-02-26T10:10:48.445Z,1.20
2023-02-26T10:14:01.481Z,1.20
2023-02-26T10:17:07.315Z,1.10
2023-02-26T10:20:20.418Z,1.20
2023-02-26T10:23:27.231Z,1.00
2023-02-26T10:26:52.032Z,1.00
2023-02-26T10:30:03.912Z,1.00
2023-02-26T10:33:14.566Z,1.40
2023-02-26T10:36:30.867Z,1.30
2023-02-26T10:39:44.820Z,1.60
2023-02-26T10:42:49.237Z,1.50
2023-02-26T10:45:57.556Z,1.30
2023-02-26T10:49:10.926Z,1.30
2023-02-26T10:52:18.092Z,1.30
2023-02-26T10:55:30.883Z,1.30
2023-02-26T10:58:32.526Z,1.00
2023-02-26T11:01:34.164Z,1.40
2023-02-26T11:04:35.794Z,1.80
2023-02-26T11:07:37.903Z,1.20
2023-02-26T11:10:49.283Z,2.00
2023-02-26T11:13:52.101Z,1.20
2023-02-26T11:16:57.354Z,1.20
2023-02-26T11:20:02.199Z,1.90
2023-02-26T11:23:06.687Z,1.00
2023-02-26T11:26:17.611Z,1.80
2023-02-26T11:29:22.189Z,1.70
2023-02-26T11:32:30.246Z,1.60
2023-02-26T11:35:31.940Z,1.80
2023-02-26T11:38:33.899Z,1.90
2023-02-26T11:41:38.589Z,1.50
2023-02-26T11:44:43.945Z,1.20
2023-02-26T11:47:47.220Z,1.30
2023-02-26T11:50:52.538Z,1.30
2023-02-26T11:53:56.140Z,1.30
2023-02-26T11:57:02.962Z,1.50
2023-02-26T12:00:18.993Z,1.30
2023-02-26T12:03:31.062Z,1.80
2023-02-26T12:06:32.987Z,1.40
2023-02-26T12:09:34.518Z,1.30
2023-02-26T12:13:06.306Z,1.30
2023-02-26T12:16:14.306Z,1.50
2023-02-26T12:19:36.368Z,1.30
2023-02-26T12:22:49.898Z,1.50
2023-02-26T12:26:29.938Z,1.20
2023-02-26T12:29:59.511Z,1.80
2023-02-26T12:33:28.768Z,1.30
2023-02-26T12:36:48.316Z,1.40
2023-02-26T12:40:02.035Z,1.90
2023-02-26T12:43:27.927Z,2.10
2023-02-26T12:46:51.327Z,1.60
2023-02-26T12:50:08.460Z,0.90
2023-02-26T12:53:38.428Z,2.10
2023-02-26T12:56:45.604Z,1.70
2023-02-26T13:00:12.885Z,2.30
2023-02-26T13:03:51.984Z,1.20
2023-02-26T13:07:17.892Z,1.40
2023-02-26T13:10:33.669Z,1.20
2023-02-26T13:13:59.251Z,1.70
2023-02-26T13:17:12.132Z,0.90
2023-02-26T13:20:19.942Z,1.30
2023-02-26T13:23:24.148Z,1.20
2023-02-26T13:29:31.020Z,1.50
2023-02-26T13:32:34.172Z,1.10
2023-02-26T13:35:38.471Z,1.00
2023-02-26T13:39:21.515Z,1.90
2023-02-26T13:42:37.096Z,5.50
2023-02-26T13:46:16.018Z,8.10
2023-02-26T13:49:26.009Z,4.10
2023-02-26T13:52:29.967Z,1.30
2023-02-26T13:55:47.945Z,1.90
2023-02-26T13:58:53.995Z,1.20
2023-02-26T14:01:57.993Z,1.20
2023-02-26T14:05:00.368Z,0.90
2023-02-26T14:08:02.116Z,1.90
2023-02-26T14:11:25.336Z,0.80
2023-02-26T14:14:36.190Z,0.70
2023-02-26T14:17:49.039Z,0.70
2023-02-26T14:20:51.112Z,0.80
2023-02-26T14:24:01.340Z,0.80
2023-02-26T14:27:12.152Z,1.70
2023-02-26T14:30:18.752Z,1.90
2023-02-26T14:33:29.399Z,3.30
2023-02-26T14:36:42.628Z,0.60
2023-02-26T14:39:48.782Z,1.00
2023-02-26T14:42:53.264Z,0.70
2023-02-26T14:45:54.972Z,0.80
2023-02-26T14:48:57.542Z,0.90
2023-02-26T14:52:23.480Z,1.90
2023-02-26T14:55:32.550Z,1.00
2023-02-26T14:58:44.287Z,0.70
2023-02-26T15:02:05.624Z,1.00
2023-02-26T15:05:12.928Z,0.90
2023-02-26T15:08:39.722Z,3.20
2023-02-26T15:11:56.599Z,1.10
2023-02-26T15:15:16.075Z,1.00
2023-02-26T15:18:38.900Z,0.90
2023-02-26T15:21:50.046Z,1.20
2023-02-26T15:24:52.088Z,1.00
2023-02-26T15:27:54.112Z,1.40
2023-02-26T15:30:57.624Z,1.70
2023-02-26T15:33:59.581Z,1.50
2023-02-26T15:37:01.442Z,1.00
2023-02-26T15:40:07.236Z,1.40
2023-02-26T15:43:10.129Z,1.20
2023-02-26T15:46:12.192Z,1.10
2023-02-26T15:49:21.118Z,1.80
2023-02-26T15:52:24.976Z,1.50
2023-02-26T15:55:26.770Z,1.40
2023-02-26T15:58:35.241Z,1.00
2023-02-26T16:01:36.954Z,0.90
2023-02-26T16:04:38.816Z,2.30
2023-02-26T16:07:40.949Z,1.30
2023-02-26T16:10:43.440Z,1.10
2023-02-26T16:13:45.664Z,1.20
2023-02-26T16:16:50.780Z,1.20
2023-02-26T16:19:52.919Z,1.40
2023-02-26T16:22:58.559Z,4.30
2023-02-26T16:26:02.861Z,1.40
2023-02-26T16:29:16.638Z,2.20
2023-02-26T16:32:18.868Z,1.30
2023-02-26T16:35:24.374Z,1.40
2023-02-26T16:38:43.128Z,1.20
2023-02-26T16:41:48.088Z,2.20
2023-02-26T16:45:02.885Z,1.40
2023-02-26T16:48:26.093Z,1.40
2023-02-26T16:54:32.928Z,2.30
2023-02-26T16:57:40.358Z,1.60
2023-02-26T17:00:45.553Z,2.40
2023-02-26T17:03:50.910Z,1.60
2023-02-26T17:06:53.236Z,2.10
2023-02-26T17:09:58.776Z,2.30
2023-02-26T17:13:12.842Z,2.50
2023-02-26T17:16:14.729Z,2.90
2023-02-26T17:19:18.302Z,1.60
2023-02-26T17:22:26.220Z,2.40
2023-02-26T17:25:33.373Z,1.90
2023-02-26T17:28:39.889Z,1.80
2023-02-26T17:31:43.640Z,1.70
2023-02-26T17:34:45.326Z,2.90
2023-02-26T17:37:47.197Z,2.10
2023-02-26T17:40:49.141Z,2.20
2023-02-26T17:43:50.866Z,2.30
2023-02-26T17:46:52.643Z,1.80
2023-02-26T17:49:54.345Z,1.90
2023-02-26T17:52:57.405Z,1.90
2023-02-26T17:56:00.097Z,1.60
2023-02-26T17:59:02.189Z,1.50
2023-02-26T18:02:15.622Z,2.10
2023-02-26T18:05:19.326Z,2.40
2023-02-26T18:08:25.810Z,3.00
2023-02-26T18:11:27.883Z,2.90
2023-02-26T18:14:29.766Z,2.80
2023-02-26T18:17:31.452Z,3.30
2023-02-26T18:20:34.083Z,3.00
2023-02-26T18:23:35.733Z,3.40
2023-02-26T18:26:37.327Z,2.70
2023-02-26T18:29:38.944Z,2.20
2023-02-26T18:32:40.604Z,2.70
2023-02-26T18:35:46.183Z,2.20
2023-02-26T18:38:47.730Z,1.50
2023-02-26T18:41:49.413Z,1.60
2023-02-26T18:44:51.765Z,4.50
2023-02-26T18:47:54.216Z,2.10
2023-02-26T18:50:56.401Z,3.70
2023-02-26T18:53:57.984Z,2.60
2023-02-26T18:56:59.629Z,2.20
2023-02-26T19:00:01.458Z,4.00
2023-02-26T19:03:03.387Z,2.30
2023-02-26T19:06:08.817Z,2.20
2023-02-26T19:09:10.486Z,3.20
2023-02-26T19:12:17.619Z,1.70
2023-02-26T19:15:20.812Z,2.60
2023-02-26T19:18:22.498Z,2.10
2023-02-26T19:21:24.389Z,4.00
2023-02-26T19:24:26.104Z,1.80
2023-02-26T19:27:27.713Z,2.20
2023-02-26T19:30:30.104Z,2.10
2023-02-26T19:33:32.192Z,2.00
2023-02-26T19:36:34.097Z,3.20
2023-02-26T19:39:35.694Z,5.20
2023-02-26T19:42:38.011Z,3.70
2023-02-26T19:45:39.660Z,2.30
2023-02-26T19:48:42.316Z,3.70
2023-02-26T19:51:43.968Z,2.80
2023-02-26T19:54:45.590Z,3.50
2023-02-26T19:57:48.350Z,3.10
2023-02-26T20:00:51.303Z,2.20
2023-02-26T20:03:52.956Z,2.00
2023-02-26T20:06:54.690Z,1.80
2023-02-26T20:09:56.357Z,2.40
2023-02-26T20:12:58.400Z,3.30
2023-02-26T20:16:02.020Z,2.80
2023-02-26T20:19:03.706Z,2.00
2023-02-26T20:22:05.519Z,3.60
2023-02-26T20:25:07.473Z,2.00
2023-02-26T20:28:09.457Z,2.20
2023-02-26T20:31:12.813Z,2.40
2023-02-26T20:34:21.246Z,3.10
2023-02-26T20:37:22.983Z,4.40
2023-02-26T20:40:24.632Z,2.90
2023-02-26T20:43:26.352Z,2.00
2023-02-26T20:46:30.574Z,1.90
2023-02-26T20:49:32.316Z,5.50
2023-02-26T20:52:33.971Z,2.10
2023-02-26T20:55:35.973Z,2.40
2023-02-26T20:58:39.275Z,2.00
2023-02-26T21:01:41.099Z,2.60
2023-02-26T21:04:42.830Z,2.50
2023-02-26T21:07:44.656Z,2.20
2023-02-26T21:10:46.328Z,2.00
2023-02-26T21:13:48.271Z,2.30
2023-02-26T21:16:50.114Z,2.40
2023-02-26T21:19:52.218Z,2.50
2023-02-26T21:22:54.477Z,2.00
2023-02-26T21:25:56.185Z,2.20
2023-02-26T21:29:00.014Z,2.30
2023-02-26T21:32:03.779Z,3.10
2023-02-26T21:35:06.684Z,2.70
2023-02-26T21:38:09.066Z,2.00
2023-02-26T21:41:10.852Z,2.40
2023-02-26T21:44:12.627Z,2.30
2023-02-26T21:47:14.297Z,2.40
2023-02-26T21:50:16.673Z,2.90
2023-02-26T21:53:18.251Z,2.80
2023-02-26T21:56:20.381Z,2.50
2023-02-26T21:59:23.412Z,2.30
2023-02-26T22:02:25.142Z,2.20
2023-02-26T22:05:26.718Z,1.80
2023-02-26T22:08:28.396Z,2.10
2023-02-26T22:11:30.065Z,2.20
2023-02-26T22:14:31.766Z,1.90
2023-02-26T22:17:33.304Z,2.20
2023-02-26T22:20:34.890Z,2.20
2023-02-26T22:23:36.750Z,2.20
2023-02-26T22:26:38.408Z,2.40
2023-02-26T22:29:39.955Z,3.40
2023-02-26T22:32:43.783Z,2.10
2023-02-26T22:35:45.339Z,1.90
2023-02-26T22:38:47.000Z,2.00
2023-02-26T22:41:48.600Z,1.90
2023-02-26T22:44:50.123Z,2.20
2023-02-26T22:47:51.816Z,1.40
2023-02-26T22:50:53.310Z,1.50
2023-02-26T22:53:54.915Z,1.60
2023-02-26T22:56:56.812Z,1.60
2023-02-26T22:59:58.443Z,2.10
2023-02-26T23:03:00.307Z,2.80
2023-02-26T23:06:01.811Z,2.00
2023-02-26T23:09:05.827Z,1.50
2023-02-26T23:12:08.041Z,1.60
2023-02-26T23:15:10.512Z,1.60
2023-02-26T23:18:12.233Z,1.90
2023-02-26T23:21:14.465Z,1.80
2023-02-26T23:24:16.124Z,1.60
2023-02-26T23:27:20.558Z,1.60
2023-02-26T23:30:22.197Z,2.00
2023-02-26T23:33:23.759Z,2.40
2023-02-26T23:36:25.363Z,2.50
2023-02-26T23:39:28.498Z,2.80
2023-02-26T23:42:29.992Z,1.90
2023-02-26T23:45:31.560Z,1.50
2023-02-26T23:48:33.271Z,3.10
2023-02-26T23:51:34.897Z,2.30
2023-02-26T23:54:39.654Z,1.40
2023-02-26T23:57:41.250Z,1.80
